Time;durP1;ratioP1;P1;durP2;ratioP2;P2;SDS_P1;SDS_P2;PMS_P1;PMS_P2;Temp;Humidity;BMP_temperature;BMP_pressure;BME280_temperature;BME280_humidity;BME280_pressure;Samples;Min_cycle;Max_cycle;Signal;HPM_P1;HPM_P2
2022/10/19 00:02:17;;;;;;;12.82;3.45;;;;;;;10.37;100.00;102490.81;5076941;28;20052;-74
2022/10/19 00:04:43;;;;;;;18.45;3.85;;;;;;;10.36;100.00;102486.44;5069447;28;20146;-72
2022/10/19 00:07:10;;;;;;;15.38;3.10;;;;;;;10.34;100.00;102489.56;5069639;28;20197;-72
2022/10/19 00:09:36;;;;;;;14.98;4.10;;;;;;;10.24;100.00;102478.19;5072582;28;20167;-72
2022/10/19 00:12:03;;;;;;;18.10;4.38;;;;;;;10.25;100.00;102477.84;5069282;28;20055;-72
2022/10/19 00:14:30;;;;;;;20.50;6.20;;;;;;;10.20;100.00;102480.06;5065573;28;20055;-74
2022/10/19 00:16:57;;;;;;;19.35;4.18;;;;;;;10.17;100.00;102478.00;5069540;28;20051;-72
2022/10/19 00:19:25;;;;;;;18.92;4.88;;;;;;;10.06;100.00;102482.44;5067136;28;20060;-70
2022/10/19 00:21:53;;;;;;;21.75;4.43;;;;;;;9.87;100.00;102483.03;5094259;27;20178;-74
2022/10/19 00:24:20;;;;;;;14.80;3.75;;;;;;;9.76;100.00;102475.56;5068677;28;20055;-74
2022/10/19 00:26:46;;;;;;;25.77;4.13;;;;;;;9.69;100.00;102473.38;5067838;28;20055;-74
2022/10/19 00:29:14;;;;;;;17.42;6.20;;;;;;;9.74;100.00;102477.88;5072795;28;20050;-72
2022/10/19 00:31:40;;;;;;;22.50;4.65;;;;;;;9.80;100.00;102487.53;5065947;28;20065;-72
2022/10/19 00:34:07;;;;;;;14.80;3.85;;;;;;;9.82;100.00;102491.56;5070741;28;20864;-71
2022/10/19 00:36:40;;;;;;;16.48;4.00;;;;;;;9.81;100.00;102489.97;5080938;28;20043;-73
2022/10/19 00:39:11;;;;;;;17.80;4.32;;;;;;;9.79;100.00;102486.72;5086050;28;20039;-72
2022/10/19 00:41:38;;;;;;;20.05;4.35;;;;;;;9.81;100.00;102487.19;5074629;28;20123;-74
2022/10/19 00:44:27;;;;;;;13.75;4.38;;;;;;;9.78;100.00;102484.31;5083218;28;20137;-74
2022/10/19 00:46:58;;;;;;;14.93;4.00;;;;;;;9.67;100.00;102486.75;5107364;28;20126;-74
2022/10/19 00:49:31;;;;;;;14.75;4.82;;;;;;;9.61;100.00;102492.88;5079809;28;20091;-72
2022/10/19 00:52:05;;;;;;;13.52;4.22;;;;;;;9.58;100.00;102493.56;5080273;28;20090;-72
2022/10/19 00:54:35;;;;;;;17.45;4.70;;;;;;;9.56;100.00;102496.69;5078785;28;20044;-72
2022/10/19 00:57:03;;;;;;;18.13;4.50;;;;;;;9.59;100.00;102490.44;5077530;28;20051;-72
2022/10/19 00:59:31;;;;;;;15.80;4.05;;;;;;;9.66;100.00;102487.91;5082683;28;20055;-70
2022/10/19 01:02:02;;;;;;;17.90;4.13;;;;;;;9.66;100.00;102490.66;5081842;28;20056;-72
2022/10/19 01:04:29;;;;;;;16.67;4.18;;;;;;;9.62;100.00;102481.47;5089238;28;20495;-73
2022/10/19 01:06:57;;;;;;;15.38;4.90;;;;;;;9.60;100.00;102486.56;5079871;28;20123;-75
2022/10/19 01:09:26;;;;;;;11.85;4.18;;;;;;;9.59;100.00;102484.91;5084117;28;20057;-74
2022/10/19 01:11:56;;;;;;;26.77;6.53;;;;;;;9.61;100.00;102484.56;5076038;28;20805;-74
2022/10/19 01:14:45;;;;;;;11.55;4.45;;;;;;;9.50;100.00;102486.22;5073077;28;20045;-75
2022/10/19 01:17:36;;;;;;;20.30;4.57;;;;;;;9.43;100.00;102477.69;5073982;28;20077;-75
2022/10/19 01:20:27;;;;;;;14.55;4.45;;;;;;;9.33;100.00;102478.97;5090777;28;20043;-75
2022/10/19 01:23:15;;;;;;;15.55;3.97;;;;;;;9.30;100.00;102482.44;5078798;28;20074;-74
2022/10/19 01:26:19;;;;;;;14.60;3.92;;;;;;;9.29;100.00;102474.50;5093862;28;20054;-74
2022/10/19 01:29:05;;;;;;;16.70;4.43;;;;;;;9.26;100.00;102473.25;5079411;28;20508;-74
2022/10/19 01:31:34;;;;;;;15.73;4.10;;;;;;;9.25;100.00;102471.59;5078052;28;20162;-73
2022/10/19 01:34:52;;;;;;;18.17;4.18;;;;;;;9.23;100.00;102471.16;5085562;28;20066;-73
2022/10/19 01:37:32;;;;;;;17.65;4.25;;;;;;;9.18;100.00;102465.84;5082968;28;20056;-73
2022/10/19 01:40:26;;;;;;;9.13;3.70;;;;;;;9.16;100.00;102459.88;5067447;28;20083;-74
2022/10/19 01:43:07;;;;;;;16.95;4.28;;;;;;;9.15;100.00;102461.03;5102170;28;20052;-73
2022/10/19 01:46:01;;;;;;;12.07;4.10;;;;;;;9.15;100.00;102463.78;5083453;28;20548;-74
2022/10/19 01:48:31;;;;;;;17.88;6.28;;;;;;;9.17;100.00;102461.50;5084241;28;20048;-73
2022/10/19 01:51:05;;;;;;;14.35;4.28;;;;;;;9.11;100.00;102460.09;5081082;28;20044;-73
2022/10/19 01:53:39;;;;;;;20.27;5.00;;;;;;;9.07;100.00;102459.19;5078826;28;20044;-73
2022/10/19 01:56:07;;;;;;;14.90;4.15;;;;;;;9.06;100.00;102454.81;5079452;28;20086;-74
2022/10/19 01:58:41;;;;;;;14.75;4.75;;;;;;;8.94;100.00;102452.03;5083285;28;20043;-74
2022/10/19 02:01:09;;;;;;;18.92;4.15;;;;;;;8.84;100.00;102449.75;5082806;28;20055;-73
2022/10/19 02:03:54;;;;;;;13.13;3.83;;;;;;;8.81;100.00;102455.16;5088468;28;20052;-73
2022/10/19 02:06:21;;;;;;;14.50;3.92;;;;;;;8.81;100.00;102453.19;5085453;28;20549;-73
2022/10/19 02:08:50;;;;;;;19.50;4.60;;;;;;;8.83;100.00;102461.13;5090877;28;20062;-73
2022/10/19 02:11:22;;;;;;;17.65;4.30;;;;;;;8.82;100.00;102445.72;5085393;28;20431;-73
2022/10/19 02:14:03;;;;;;;13.52;4.03;;;;;;;8.68;100.00;102443.31;5089809;28;20055;-74
2022/10/19 02:16:43;;;;;;;29.95;6.43;;;;;;;8.70;100.00;102454.78;5090995;28;20048;-74
2022/10/19 02:19:16;;;;;;;;;;;;;;;8.74;100.00;102452.16;5090705;28;20048;-73
2022/10/19 02:21:42;;;;;;;10.25;3.85;;;;;;;8.75;100.00;102454.59;5087586;28;19966;-74
2022/10/19 02:24:09;;;;;;;14.40;4.25;;;;;;;8.75;100.00;102449.06;5088223;28;20051;-73
2022/10/19 02:26:36;;;;;;;18.65;4.45;;;;;;;8.80;100.00;102450.75;5088164;28;20055;-74
2022/10/19 02:29:03;;;;;;;18.67;4.53;;;;;;;8.82;100.00;102448.47;5089155;28;20052;-73
2022/10/19 02:31:29;;;;;;;18.67;4.43;;;;;;;8.78;100.00;102442.81;5086128;28;20062;-73
2022/10/19 02:33:56;;;;;;;15.10;4.47;;;;;;;8.70;100.00;102446.50;5094949;28;20071;-73
2022/10/19 02:36:28;;;;;;;12.18;4.03;;;;;;;8.66;100.00;102445.59;5086369;28;20048;-73
2022/10/19 02:38:54;;;;;;;15.90;3.80;;;;;;;8.65;100.00;102443.16;5086968;28;20133;-73
2022/10/19 02:41:27;;;;;;;14.60;4.00;;;;;;;8.61;100.00;102445.78;5079065;28;20428;-73
2022/10/19 02:44:02;;;;;;;20.92;4.68;;;;;;;8.62;100.00;102446.59;5088563;28;20051;-73
2022/10/19 02:46:41;;;;;;;16.70;4.43;;;;;;;8.65;100.00;102452.25;5080456;28;20039;-73
2022/10/19 02:49:08;;;;;;;14.05;4.38;;;;;;;8.63;100.00;102446.28;5085873;28;20059;-73
2022/10/19 02:51:38;;;;;;;14.93;4.63;;;;;;;8.58;100.00;102435.47;5075948;28;20093;-73
2022/10/19 02:54:09;;;;;;;15.00;5.18;;;;;;;8.51;100.00;102426.13;5085460;28;20546;-74
2022/10/19 02:56:35;;;;;;;23.63;5.35;;;;;;;8.55;100.00;102433.38;5081735;28;20098;-73
2022/10/19 02:59:02;;;;;;;12.52;4.30;;;;;;;8.56;100.00;102431.41;5091336;28;20116;-73
2022/10/19 03:01:29;;;;;;;15.85;4.80;;;;;;;8.57;100.00;102435.81;5090289;28;20047;-74
2022/10/19 03:03:55;;;;;;;17.42;4.40;;;;;;;8.51;100.00;102429.72;5088755;28;20052;-73
2022/10/19 03:06:21;;;;;;;11.32;3.67;;;;;;;8.32;100.00;102436.88;5089231;28;20047;-74
2022/10/19 03:08:51;;;;;;;18.08;4.68;;;;;;;8.21;100.00;102432.91;5088723;28;20073;-74
2022/10/19 03:11:17;;;;;;;18.00;4.57;;;;;;;8.22;100.00;102432.63;5084034;28;20055;-73
2022/10/19 03:13:44;;;;;;;15.43;4.80;;;;;;;8.21;100.00;102432.91;5088916;28;20047;-74
2022/10/19 03:16:12;;;;;;;12.98;4.22;;;;;;;8.07;100.00;102438.75;5087628;28;20063;-73
2022/10/19 03:18:39;;;;;;;13.27;4.15;;;;;;;8.06;100.00;102441.84;5086528;28;20184;-73
2022/10/19 03:21:14;;;;;;;16.48;5.00;;;;;;;8.07;100.00;102433.22;5086364;28;20495;-73
2022/10/19 03:23:41;;;;;;;17.60;5.25;;;;;;;8.11;100.00;102434.16;5087303;28;20048;-74
2022/10/19 03:26:13;;;;;;;15.45;5.60;;;;;;;8.15;100.00;102435.09;5080805;28;20044;-74
2022/10/19 03:28:40;;;;;;;18.52;5.45;;;;;;;8.15;100.00;102437.03;5094021;28;20048;-73
2022/10/19 03:31:07;;;;;;;13.95;4.75;;;;;;;8.03;100.00;102435.84;5093393;28;20454;-73
2022/10/19 03:33:33;;;;;;;18.88;5.18;;;;;;;7.97;100.00;102436.41;5086880;28;20039;-73
2022/10/19 03:36:19;;;;;;;16.73;4.75;;;;;;;7.99;100.00;102431.34;5094851;28;20044;-74
2022/10/19 03:38:49;;;;;;;17.20;4.80;;;;;;;8.03;100.00;102432.28;5086661;28;20044;-73
2022/10/19 03:41:15;;;;;;;14.30;4.65;;;;;;;8.08;100.00;102426.56;5086386;28;20047;-73
2022/10/19 03:43:41;;;;;;;14.90;5.05;;;;;;;8.09;100.00;102430.13;5081557;28;20050;-73
2022/10/19 03:46:08;;;;;;;15.63;4.30;;;;;;;8.09;100.00;102430.94;5086830;28;20047;-74
2022/10/19 03:48:35;;;;;;;14.77;4.45;;;;;;;8.06;100.00;102420.56;5072598;28;20056;-73
2022/10/19 03:51:07;;;;;;;15.15;5.35;;;;;;;8.04;100.00;102418.16;5093600;28;20055;-73
2022/10/19 03:53:43;;;;;;;20.60;5.70;;;;;;;7.92;100.00;102423.63;5073500;28;20048;-73
2022/10/19 03:56:17;;;;;;;17.90;4.80;;;;;;;7.83;100.00;102416.56;5080170;28;20040;-73
2022/10/19 03:58:48;;;;;;;18.83;4.68;;;;;;;7.76;100.00;102425.41;5080778;28;20052;-73
2022/10/19 04:01:16;;;;;;;15.02;5.03;;;;;;;7.64;100.00;102424.53;5082425;28;20047;-73
2022/10/19 04:03:43;;;;;;;13.73;4.63;;;;;;;7.63;100.00;102426.47;5075207;28;20051;-73
2022/10/19 04:06:16;;;;;;;20.45;5.25;;;;;;;7.65;100.00;102426.13;5087487;28;20056;-73
2022/10/19 04:08:48;;;;;;;22.30;6.63;;;;;;;7.69;100.00;102438.91;5079103;28;20059;-73
2022/10/19 04:11:17;;;;;;;18.98;5.78;;;;;;;7.75;100.00;102429.31;5079585;28;20044;-73
2022/10/19 04:13:43;;;;;;;20.60;4.97;;;;;;;7.80;100.00;102426.31;5089135;28;20113;-73
2022/10/19 04:16:12;;;;;;;17.95;5.00;;;;;;;7.84;100.00;102426.47;5086610;28;20092;-73
2022/10/19 04:18:39;;;;;;;17.95;5.30;;;;;;;7.83;100.00;102428.41;5083633;28;20050;-73
2022/10/19 04:21:29;;;;;;;12.85;4.90;;;;;;;7.67;100.00;102427.41;5081365;28;20516;-73
2022/10/19 04:24:02;;;;;;;14.73;5.20;;;;;;;7.65;100.00;102426.13;5085343;28;20056;-74
2022/10/19 04:26:48;;;;;;;12.50;5.13;;;;;;;7.65;100.00;102429.72;5078614;28;20040;-73
2022/10/19 04:29:17;;;;;;;15.27;5.15;;;;;;;7.62;100.00;102432.31;5089923;28;20052;-72
2022/10/19 04:32:04;;;;;;;17.33;5.70;;;;;;;7.67;100.00;102426.63;5082284;28;20048;-73
2022/10/19 04:34:30;;;;;;;14.00;5.18;;;;;;;7.69;100.00;102416.88;5090141;28;20044;-73
2022/10/19 04:37:03;;;;;;;20.17;5.85;;;;;;;7.73;100.00;102417.00;5086049;28;20135;-73
2022/10/19 04:39:30;;;;;;;14.98;4.93;;;;;;;7.76;100.00;102428.16;5079974;28;20078;-71
2022/10/19 04:41:56;;;;;;;18.65;5.38;;;;;;;7.72;100.00;102429.16;5087779;28;20051;-74
2022/10/19 04:44:22;;;;;;;18.35;5.22;;;;;;;7.71;100.00;102414.59;5091037;28;20078;-74
2022/10/19 04:46:49;;;;;;;23.38;7.43;;;;;;;7.74;100.00;102418.63;5084340;28;20416;-73
2022/10/19 04:49:15;;;;;;;20.77;6.55;;;;;;;7.74;100.00;102419.41;5088732;28;20431;-74
2022/10/19 04:51:45;;;;;;;15.18;5.90;;;;;;;7.77;100.00;102412.44;5085706;28;20048;-73
2022/10/19 04:54:12;;;;;;;17.58;6.90;;;;;;;7.75;100.00;102414.72;5085086;28;20120;-73
2022/10/19 04:56:38;;;;;;;18.95;6.30;;;;;;;7.72;100.00;102412.63;5085313;28;20060;-73
2022/10/19 04:59:08;;;;;;;18.02;6.28;;;;;;;7.65;100.00;102410.41;5090970;28;20048;-73
2022/10/19 05:01:36;;;;;;;18.63;7.35;;;;;;;7.59;100.00;102419.19;5087383;28;20092;-73
2022/10/19 05:04:02;;;;;;;16.73;5.85;;;;;;;7.46;100.00;102417.53;5088307;28;20052;-73
2022/10/19 05:06:30;;;;;;;19.45;6.28;;;;;;;7.38;100.00;102415.66;5081730;28;20664;-73
2022/10/19 05:08:57;;;;;;;24.30;7.00;;;;;;;7.39;100.00;102406.25;5088945;28;20055;-73
2022/10/19 05:11:24;;;;;;;19.75;7.50;;;;;;;7.48;100.00;102415.25;5084604;28;20048;-73
2022/10/19 05:13:50;;;;;;;22.92;8.00;;;;;;;7.54;100.00;102411.97;5092427;28;20048;-73
2022/10/19 05:16:22;;;;;;;21.73;8.32;;;;;;;7.61;100.00;102414.19;5088512;28;20056;-73
2022/10/19 05:18:50;;;;;;;17.50;7.88;;;;;;;7.64;100.00;102399.72;5088511;28;20052;-73
2022/10/19 05:21:17;;;;;;;20.15;7.85;;;;;;;7.63;100.00;102401.66;5091100;28;20055;-73
2022/10/19 05:23:44;;;;;;;21.45;9.85;;;;;;;7.67;100.00;102410.88;5089660;28;20044;-74
2022/10/19 05:26:16;;;;;;;19.25;7.88;;;;;;;7.72;100.00;102413.44;5084841;28;20774;-74
2022/10/19 05:29:03;;;;;;;25.30;8.02;;;;;;;7.69;100.00;102411.34;5089303;28;20101;-73
2022/10/19 05:31:32;;;;;;;22.30;8.43;;;;;;;7.72;100.00;102404.34;5082250;28;20520;-71
2022/10/19 05:33:59;;;;;;;20.67;7.97;;;;;;;7.77;100.00;102396.69;5090720;28;20055;-72
2022/10/19 05:36:31;;;;;;;23.13;10.30;;;;;;;7.79;100.00;102394.41;5093719;28;20036;-71
2022/10/19 05:39:00;;;;;;;21.75;10.25;;;;;;;7.87;100.00;102401.00;5093863;28;20048;-72
2022/10/19 05:41:27;;;;;;;23.27;10.65;;;;;;;7.94;100.00;102396.53;5084868;28;20454;-71
2022/10/19 05:43:58;;;;;;;26.30;10.32;;;;;;;7.99;100.00;102403.78;5085013;28;20040;-72
2022/10/19 05:46:27;;;;;;;23.52;12.55;;;;;;;8.02;100.00;102397.59;5098876;28;20116;-72
2022/10/19 05:48:55;;;;;;;31.10;13.40;;;;;;;8.04;100.00;102385.06;5087394;28;20131;-72
2022/10/19 05:51:23;;;;;;;39.50;14.15;;;;;;;8.11;100.00;102395.56;5084451;28;20063;-71
2022/10/19 05:53:51;;;;;;;35.28;14.38;;;;;;;8.14;100.00;102396.81;5091668;28;20043;-71
2022/10/19 05:56:21;;;;;;;29.45;11.60;;;;;;;8.07;100.00;102395.41;5082732;28;20048;-71
2022/10/19 05:58:48;;;;;;;33.80;11.52;;;;;;;8.06;100.00;102398.50;5083348;28;20056;-71
2022/10/19 06:01:17;;;;;;;27.80;11.25;;;;;;;8.07;100.00;102405.66;5092359;28;20504;-72
2022/10/19 06:03:46;;;;;;;36.25;12.98;;;;;;;8.12;100.00;102416.47;5097419;28;20531;-71
2022/10/19 06:06:12;;;;;;;90.63;17.83;;;;;;;8.19;100.00;102418.66;5093463;28;20526;-72
2022/10/19 06:08:39;;;;;;;36.72;16.00;;;;;;;8.27;100.00;102417.81;5100053;28;20047;-72
2022/10/19 06:11:09;;;;;;;50.13;17.52;;;;;;;8.35;100.00;102416.91;5085489;28;20098;-71
2022/10/19 06:13:36;;;;;;;44.10;16.10;;;;;;;8.36;100.00;102421.25;5090678;28;20048;-72
2022/10/19 06:16:04;;;;;;;43.30;16.48;;;;;;;8.41;100.00;102423.81;5092055;28;20047;-71
2022/10/19 06:18:32;;;;;;;38.33;16.02;;;;;;;8.43;100.00;102427.84;5080647;28;20047;-72
2022/10/19 06:21:07;;;;;;;42.67;15.35;;;;;;;8.46;100.00;102431.84;5088974;28;20048;-71
2022/10/19 06:23:34;;;;;;;58.67;17.25;;;;;;;8.48;100.00;102424.88;5087541;28;20131;-71
2022/10/19 06:26:03;;;;;;;48.63;16.90;;;;;;;8.53;100.00;102429.34;5096459;28;20492;-71
2022/10/19 06:28:30;;;;;;;46.10;15.73;;;;;;;8.55;100.00;102425.13;5092094;28;20055;-72
2022/10/19 06:30:58;;;;;;;45.53;14.38;;;;;;;8.61;100.00;102423.72;5119773;27;20048;-71
2022/10/19 06:33:25;;;;;;;55.15;16.80;;;;;;;8.62;100.00;102425.34;5088770;28;20832;-72
2022/10/19 06:35:52;;;;;;;54.72;16.48;;;;;;;8.66;100.00;102431.78;5088698;28;20083;-71
2022/10/19 06:38:19;;;;;;;41.92;13.13;;;;;;;8.68;100.00;102436.97;5089093;28;20054;-70
2022/10/19 06:40:57;;;;;;;50.90;14.20;;;;;;;8.70;100.00;102432.72;5088978;28;20048;-72
2022/10/19 06:43:24;;;;;;;36.55;13.85;;;;;;;8.73;100.00;102426.50;5081413;28;20048;-72
2022/10/19 06:46:02;;;;;;;39.08;13.02;;;;;;;8.76;100.00;102434.09;5078161;28;20048;-71
2022/10/19 06:48:28;;;;;;;39.28;13.43;;;;;;;8.79;100.00;102433.41;5088586;28;20044;-72
2022/10/19 06:51:21;;;;;;;28.92;13.52;;;;;;;8.82;100.00;102424.44;5087128;28;20051;-71
2022/10/19 06:53:48;;;;;;;28.35;12.48;;;;;;;8.86;100.00;102427.31;5078314;28;20064;-73
2022/10/19 06:56:23;;;;;;;44.40;15.25;;;;;;;8.88;100.00;102425.81;5085193;28;20136;-72
2022/10/19 06:58:50;;;;;;;35.20;13.57;;;;;;;8.95;100.00;102430.78;5089833;28;20052;-73
2022/10/19 07:01:16;;;;;;;36.35;13.57;;;;;;;8.95;100.00;102425.25;5092000;28;20393;-72
2022/10/19 07:03:43;;;;;;;38.70;12.60;;;;;;;8.95;100.00;102428.00;5086012;28;20559;-73
2022/10/19 07:06:13;;;;;;;27.55;12.55;;;;;;;8.92;100.00;102429.53;5087285;28;21542;-72
2022/10/19 07:08:41;;;;;;;40.13;14.13;;;;;;;8.97;100.00;102432.03;5091798;28;20043;-72
2022/10/19 07:11:13;;;;;;;33.72;13.25;;;;;;;9.02;100.00;102433.75;5088717;28;20047;-73
2022/10/19 07:13:40;;;;;;;43.22;13.23;;;;;;;9.04;100.00;102429.50;5090997;28;20052;-72
2022/10/19 07:16:12;;;;;;;43.40;13.90;;;;;;;9.03;100.00;102433.41;5082885;28;20094;-74
2022/10/19 07:18:48;;;;;;;34.47;14.32;;;;;;;9.07;100.00;102433.53;5088383;28;20048;-72
2022/10/19 07:21:15;;;;;;;39.47;14.02;;;;;;;9.10;100.00;102428.13;5083788;28;20436;-73
2022/10/19 07:23:45;;;;;;;30.52;13.05;;;;;;;9.14;100.00;102426.28;5093302;28;20055;-72
2022/10/19 07:26:22;;;;;;;28.73;13.45;;;;;;;9.17;100.00;102417.31;5078235;28;20036;-72
2022/10/19 07:28:49;;;;;;;26.02;12.48;;;;;;;9.22;100.00;102422.56;5085424;28;20048;-72
2022/10/19 07:31:19;;;;;;;28.70;13.27;;;;;;;9.34;100.00;102430.03;5090207;28;20043;-73
2022/10/19 07:33:46;;;;;;;30.10;14.38;;;;;;;9.40;100.00;102431.44;5083849;28;20126;-72
2022/10/19 07:36:13;;;;;;;25.27;14.10;;;;;;;9.45;100.00;102431.19;5082334;28;20048;-72
2022/10/19 07:38:40;;;;;;;23.45;11.77;;;;;;;9.48;100.00;102434.06;5093762;28;20044;-72
2022/10/19 07:41:11;;;;;;;27.02;13.80;;;;;;;9.51;100.00;102433.34;5085974;28;20058;-73
2022/10/19 07:43:39;;;;;;;30.15;15.35;;;;;;;9.58;100.00;102432.75;5081729;28;20048;-72
2022/10/19 07:46:09;;;;;;;28.00;14.23;;;;;;;9.63;100.00;102429.75;5082712;28;20712;-73
2022/10/19 07:48:36;;;;;;;33.30;15.95;;;;;;;9.67;100.00;102423.19;5086037;28;20044;-73
2022/10/19 07:51:05;;;;;;;40.80;15.32;;;;;;;9.73;100.00;102421.78;5084714;28;20048;-72
2022/10/19 07:53:33;;;;;;;26.80;13.15;;;;;;;9.77;100.00;102422.69;5076102;28;20088;-73
2022/10/19 07:56:07;;;;;;;34.47;15.27;;;;;;;9.84;100.00;102422.91;5084856;28;20044;-73
2022/10/19 07:58:35;;;;;;;35.33;15.73;;;;;;;9.94;100.00;102436.22;5085820;28;20218;-72
2022/10/19 08:01:07;;;;;;;38.47;15.68;;;;;;;9.99;100.00;102444.25;5087032;28;20044;-72
2022/10/19 08:03:34;;;;;;;45.17;18.45;;;;;;;10.07;100.00;102435.06;5087187;28;20431;-73
2022/10/19 08:06:21;;;;;;;37.92;17.75;;;;;;;10.09;100.00;102440.22;5090843;28;20125;-72
2022/10/19 08:08:48;;;;;;;56.83;23.45;;;;;;;10.19;100.00;102448.00;5093167;28;20527;-73
2022/10/19 08:11:27;;;;;;;53.65;23.20;;;;;;;10.20;100.00;102450.41;5088182;28;20050;-76
2022/10/19 08:13:54;;;;;;;65.22;25.35;;;;;;;10.34;100.00;102453.59;5078963;28;20052;-73
2022/10/19 08:16:43;;;;;;;55.67;22.83;;;;;;;10.45;100.00;102457.44;5083129;28;20048;-73
2022/10/19 08:19:12;;;;;;;62.67;25.20;;;;;;;10.59;100.00;102453.47;5089163;28;20043;-73
2022/10/19 08:21:44;;;;;;;59.55;23.08;;;;;;;10.69;100.00;102452.94;5091366;28;20044;-73
2022/10/19 08:24:13;;;;;;;66.22;24.98;;;;;;;10.77;100.00;102435.34;5086614;28;20051;-73
2022/10/19 08:26:40;;;;;;;67.40;24.92;;;;;;;10.84;100.00;102436.31;5090039;28;20048;-73
2022/10/19 08:29:11;;;;;;;64.68;23.92;;;;;;;10.82;100.00;102432.28;5082884;28;20044;-74
2022/10/19 08:31:38;;;;;;;78.28;27.73;;;;;;;10.92;100.00;102448.34;5083928;28;20052;-74
2022/10/19 08:34:05;;;;;;;72.13;26.95;;;;;;;11.03;100.00;102444.69;5083505;28;20048;-74
2022/10/19 08:36:34;;;;;;;90.72;31.25;;;;;;;11.10;100.00;102444.06;5082963;28;20043;-74
2022/10/19 08:39:03;;;;;;;96.10;32.78;;;;;;;11.24;100.00;102445.19;5080578;28;20071;-74
2022/10/19 08:41:39;;;;;;;88.47;34.72;;;;;;;11.37;100.00;102443.91;5083073;28;20047;-72
2022/10/19 08:44:23;;;;;;;;;;;;;;;11.58;100.00;102438.06;5080731;28;20135;-71
2022/10/19 08:46:58;;;;;;;102.22;34.55;;;;;;;11.82;100.00;102446.13;5082385;28;20395;-72
2022/10/19 08:49:30;;;;;;;123.45;38.97;;;;;;;11.99;100.00;102448.47;5091769;28;20051;-72
2022/10/19 08:52:00;;;;;;;119.68;39.70;;;;;;;12.01;100.00;102446.94;5062002;28;20048;-74
2022/10/19 08:54:36;;;;;;;116.50;38.95;;;;;;;12.08;100.00;102447.09;5071827;28;20063;-73
2022/10/19 08:57:23;;;;;;;123.82;42.65;;;;;;;12.18;100.00;102440.13;5068305;28;20048;-72
2022/10/19 09:00:11;;;;;;;127.35;45.05;;;;;;;12.32;100.00;102440.44;5073276;28;20048;-74
2022/10/19 09:02:50;;;;;;;110.78;39.42;;;;;;;12.41;100.00;102439.00;5059847;28;20048;-75
2022/10/19 09:05:42;;;;;;;120.93;40.70;;;;;;;12.50;100.00;102424.91;5071564;28;20063;-74
2022/10/19 09:08:11;;;;;;;119.43;43.47;;;;;;;12.55;100.00;102432.91;5061022;28;20043;-73
2022/10/19 09:10:46;;;;;;;105.82;40.88;;;;;;;12.68;100.00;102432.38;5069268;28;20048;-72
2022/10/19 09:13:21;;;;;;;93.10;38.15;;;;;;;12.74;100.00;102425.34;5076927;28;20051;-74
2022/10/19 09:15:49;;;;;;;;;;;;;;;12.85;100.00;102426.31;5067519;28;20052;-73
2022/10/19 09:18:22;;;;;;;84.03;31.70;;;;;;;12.95;100.00;102430.44;5064557;28;19946;-74
2022/10/19 09:20:56;;;;;;;70.57;33.78;;;;;;;13.04;100.00;102414.34;5076174;28;20070;-73
2022/10/19 09:23:54;;;;;;;64.72;28.48;;;;;;;13.20;100.00;102415.00;5073674;28;20773;-74
2022/10/19 09:26:26;;;;;;;57.88;25.17;;;;;;;13.26;100.00;102405.13;5071708;28;20065;-74
2022/10/19 09:29:11;;;;;;;58.17;25.65;;;;;;;13.46;100.00;102394.72;5100476;27;20063;-73
2022/10/19 09:31:39;;;;;;;46.67;21.77;;;;;;;13.63;100.00;102394.13;5073673;28;20068;-72
2022/10/19 09:34:32;;;;;;;37.08;17.90;;;;;;;13.71;100.00;102377.16;5078878;28;20185;-74
2022/10/19 09:36:59;;;;;;;38.58;18.10;;;;;;;13.85;100.00;102380.13;5075464;28;20048;-73
2022/10/19 09:39:28;;;;;;;38.40;18.15;;;;;;;13.96;100.00;102385.78;5074386;28;20067;-74
2022/10/19 09:41:55;;;;;;;32.72;17.02;;;;;;;14.07;100.00;102381.16;5072582;28;20563;-71
2022/10/19 09:44:22;;;;;;;32.42;15.80;;;;;;;14.25;100.00;102379.38;5078268;28;20051;-74
2022/10/19 09:46:56;;;;;;;32.80;15.23;;;;;;;14.43;100.00;102369.22;5074363;28;20058;-73
2022/10/19 09:49:46;;;;;;;24.90;12.73;;;;;;;14.55;100.00;102364.16;5081716;28;20051;-74
2022/10/19 09:52:36;;;;;;;29.15;12.73;;;;;;;14.63;100.00;102365.81;5077034;28;20043;-73
2022/10/19 09:55:12;;;;;;;27.63;12.15;;;;;;;14.87;100.00;102365.22;5077593;28;20048;-74
2022/10/19 09:57:46;;;;;;;22.88;8.93;;;;;;;14.97;100.00;102358.09;5067746;28;20071;-73
2022/10/19 10:00:18;;;;;;;20.97;8.57;;;;;;;15.12;100.00;102360.59;5071967;28;20051;-73
2022/10/19 10:02:52;;;;;;;18.85;6.75;;;;;;;15.22;100.00;102357.06;5068511;28;20058;-74
2022/10/19 10:05:21;;;;;;;18.35;6.80;;;;;;;15.37;100.00;102352.41;5060202;28;20455;-69
2022/10/19 10:07:53;;;;;;;11.85;4.35;;;;;;;15.52;100.00;102347.72;5074206;28;20050;-74
2022/10/19 10:10:26;;;;;;;12.88;5.03;;;;;;;15.60;100.00;102352.94;5071737;28;20154;-73
2022/10/19 10:12:59;;;;;;;8.85;3.17;;;;;;;15.61;100.00;102339.75;5067818;28;20048;-72
2022/10/19 10:15:34;;;;;;;10.43;3.65;;;;;;;15.69;100.00;102344.19;5068368;28;20059;-73
2022/10/19 10:18:01;;;;;;;11.82;3.80;;;;;;;15.82;100.00;102340.63;5070237;28;20044;-71
2022/10/19 10:20:31;;;;;;;14.52;4.07;;;;;;;15.97;100.00;102347.88;5072697;28;20051;-70
2022/10/19 10:23:01;;;;;;;13.70;3.78;;;;;;;15.97;100.00;102339.50;5069239;28;20055;-73
2022/10/19 10:25:34;;;;;;;10.10;4.20;;;;;;;16.09;100.00;102335.50;5069693;28;20055;-73
2022/10/19 10:28:15;;;;;;;11.52;3.85;;;;;;;16.36;100.00;102342.31;5063074;28;20044;-70
2022/10/19 10:30:44;;;;;;;13.15;3.53;;;;;;;16.46;100.00;102339.59;5064727;28;20056;-74
2022/10/19 10:33:18;;;;;;;10.65;3.20;;;;;;;16.66;100.00;102337.19;5068461;28;20890;-72
2022/10/19 10:36:08;;;;;;;6.78;2.47;;;;;;;16.83;97.50;102328.78;5071543;28;20945;-73
2022/10/19 10:38:39;;;;;;;13.02;2.83;;;;;;;16.95;97.00;102327.56;5067603;28;20060;-72
2022/10/19 10:41:19;;;;;;;12.75;2.97;;;;;;;17.05;93.35;102330.34;5073208;28;20761;-73
2022/10/19 10:43:51;;;;;;;4.75;1.83;;;;;;;17.39;94.66;102336.25;5067054;28;20043;-74
2022/10/19 10:46:27;;;;;;;11.32;3.65;;;;;;;17.59;94.64;102329.78;5070270;28;20772;-73
2022/10/19 10:49:01;;;;;;;9.35;3.30;;;;;;;17.85;93.38;102323.66;5069330;28;20125;-72
2022/10/19 10:51:37;;;;;;;8.60;3.55;;;;;;;18.17;90.55;102314.25;5071818;28;20721;-73
2022/10/19 10:54:25;;;;;;;14.45;3.85;;;;;;;18.51;88.69;102315.22;5070388;28;20055;-73
2022/10/19 10:57:12;;;;;;;12.80;3.05;;;;;;;18.50;82.83;102314.44;5068005;28;20051;-74
2022/10/19 11:00:10;;;;;;;13.38;4.47;;;;;;;18.77;83.66;102314.59;5062740;28;20052;-71
2022/10/19 11:02:53;;;;;;;14.20;4.38;;;;;;;19.01;82.67;102310.75;5062530;28;20052;-74
2022/10/19 11:05:30;;;;;;;15.48;4.28;;;;;;;19.20;79.80;102310.13;5075178;28;20047;-72
2022/10/19 11:08:11;;;;;;;9.40;2.83;;;;;;;19.48;80.70;102298.59;5067581;28;20121;-72
2022/10/19 11:10:53;;;;;;;7.95;2.60;;;;;;;19.78;75.69;102298.59;5067885;28;20051;-72
2022/10/19 11:13:24;;;;;;;7.22;2.85;;;;;;;19.88;71.00;102284.38;5066042;28;20797;-73
2022/10/19 11:15:57;;;;;;;9.60;2.55;;;;;;;19.90;70.92;102281.94;5069209;28;20051;-73
2022/10/19 11:18:26;;;;;;;8.88;2.88;;;;;;;19.92;71.18;102278.72;5072388;28;20044;-73
2022/10/19 11:21:08;;;;;;;9.60;2.65;;;;;;;20.18;66.64;102281.53;5066254;28;20047;-75
2022/10/19 11:23:53;;;;;;;7.22;2.58;;;;;;;20.39;67.57;102286.81;5071414;28;22035;-73
2022/10/19 11:26:32;;;;;;;11.00;1.88;;;;;;;20.37;66.34;102277.22;5067000;28;20083;-72
2022/10/19 11:29:26;;;;;;;7.45;2.22;;;;;;;20.58;62.41;102287.31;5070578;28;20044;-74
2022/10/19 11:31:54;;;;;;;7.03;2.13;;;;;;;20.60;62.58;102274.41;5064448;28;20047;-73
2022/10/19 11:34:30;;;;;;;7.50;2.00;;;;;;;20.48;61.40;102286.25;5068912;28;20441;-72
2022/10/19 11:37:21;;;;;;;10.70;2.58;;;;;;;20.50;61.41;102272.59;5069448;28;20063;-72
2022/10/19 11:40:18;;;;;;;8.50;2.30;;;;;;;20.65;61.03;102271.09;5068266;28;20059;-74